ADDS METAR Data INFO
IDs: Format: Raw Decoded Include TAF

Data at: 1019 UTC 12 Dec 2017

KDUH 121015Z AUTO 33008KT 300V360 10SM -SN SCT017 BKN024 OVC055 M02/M05 A2975 RMK AO2 T10251055
KDUH 120955Z AUTO 33010G21KT 7SM -SN SCT019 BKN027 OVC046 M02/M05 A2973 RMK AO2 T10211055
KDUH 120935Z AUTO 33016G25KT 10SM -SN BKN019 OVC029 M01/M05 A2972 RMK AO2 T10141047
KDUH 120915Z AUTO 33006G18KT 10SM BKN023 BKN029 OVC040 M01/M04 A2972 RMK AO2 T10111045
KDUH 120855Z AUTO 33007G17KT 10SM SCT023 BKN031 OVC065 M01/M05 A2971 RMK AO2 T10101046
KDUH 120835Z AUTO 32013G25KT 10SM SCT020 SCT027 OVC033 M01/M04 A2970 RMK AO2 T10061041
KDUH 120815Z AUTO 32011G18KT 10SM BKN014 BKN021 OVC025 00/M03 A2970 RMK AO2 T10051031
KDUH 120755Z AUTO 32007KT 7SM OVC012 00/M02 A2969 RMK AO2 T10031021
KDUH 120735Z AUTO 30010G14KT 5SM BR OVC008 M01/M02 A2968 RMK AO2 T10061019
KDUH 120715Z AUTO 31003KT 4SM BR OVC010 M01/M02 A2967 RMK AO2 T10121025
KDUH 120655Z AUTO 30003KT 4SM BR BKN010 BKN017 OVC038 M01/M02 A2967 RMK AO2 T10131024
KDUH 120635Z AUTO 28004KT 4SM BR SCT010 OVC040 M01/M02 A2966 RMK AO2 T10131025
KDUH 120615Z AUTO 28003KT 3SM BR BKN012 BKN027 OVC040 M01/M02 A2965 RMK AO2 T10111022
KDUH 120555Z AUTO 00000KT 2SM -SN SCT006 OVC014 M01/M02 A2965 RMK AO2 T10101021 10000 21015 400001086
KDUH 120535Z AUTO 00000KT 1 1/2SM -SN SCT006 OVC012 M01/M02 A2966 RMK AO2 T10081021
KDUH 120516Z AUTO 00000KT 1 3/4SM -SN OVC015 00/M02 A2966 RMK AO2 T10041020
KDUH 120455Z AUTO 00000KT 2 1/2SM -SN BKN017 OVC022 M01/M02 A2966 RMK AO2 T10061025
KDUH 120435Z AUTO 00000KT 3SM -SN BKN025 OVC030 M01/M03 A2966 RMK AO2 T10101029
KDUH 120416Z AUTO 00000KT 7SM -SN OVC030 M01/M03 A2966 RMK AO2 T10061033
KDUH 120355Z AUTO 00000KT 10SM SCT032 BKN040 OVC046 M01/M04 A2966 RMK AO2 T10061036
KDUH 120335Z AUTO 00000KT 10SM BKN042 OVC049 00/M04 A2967 RMK AO2 T10051038
KDUH 120315Z AUTO 00000KT 10SM SCT039 OVC046 M01/M04 A2968 RMK AO2 T10061040
KDUH 120255Z AUTO 00000KT 10SM OVC048 M01/M04 A2968 RMK AO2 T10061040
KDUH 120235Z AUTO 02004KT 10SM BKN060 BKN070 OVC080 M01/M04 A2969 RMK AO2 T10071041
KDUH 120215Z AUTO 36003KT 10SM BKN060 OVC080 00/M04 A2970 RMK AO2 T10051041
KDUH 120155Z AUTO 00000KT 10SM OVC080 M01/M04 A2970 RMK AO2 T10131037
KDUH 120135Z AUTO 00000KT 10SM OVC080 M01/M04 A2971 RMK AO2 T10101037
KDUH 120115Z AUTO 00000KT 10SM OVC080 M01/M04 A2971 RMK AO2 T10131041
KDUH 120055Z AUTO 00000KT 10SM BKN080 BKN100 M01/M04 A2972 RMK AO2 T10141043
KDUH 120035Z AUTO 00000KT 10SM BKN080 M01/M05 A2973 RMK AO2 T10081046
KDUH 120015Z AUTO 00000KT 10SM OVC080 00/M05 A2974 RMK AO2 T00001046
KDUH 112355Z AUTO 00000KT 10SM OVC070 00/M05 A2974 RMK AO2 T00001046 10000 21015
KDUH 112335Z AUTO 00000KT 10SM OVC070 00/M04 A2974 RMK AO2 T00001045
KDUH 112315Z AUTO 00000KT 10SM OVC070 00/M04 A2975 RMK AO2 T00001045
KDUH 112255Z AUTO 00000KT 10SM OVC070 00/M04 A2975 RMK AO2 T00001045
KDUH 112235Z AUTO 00000KT 10SM OVC070 00/M04 A2976 RMK AO2 T00001045
KDUH 112215Z AUTO 00000KT 10SM OVC070 00/M04 A2976 RMK AO2 T00001045
KDUH 112155Z AUTO 00000KT 10SM OVC060 00/M04 A2977 RMK AO2 T00001045
KDUH 112135Z AUTO 14004KT 10SM OVC060 00/M05 A2978 RMK AO2 T10011046
KDUH 112115Z AUTO 00000KT 10SM SCT038 SCT044 OVC060 00/M04 A2980 RMK AO2 T00001045
KDUH 112055Z AUTO 18004KT 10SM SCT038 BKN044 OVC070 00/M05 A2981 RMK AO2 T10011047
KDUH 112035Z AUTO 17004KT 10SM OVC070 00/M05 A2982 RMK AO2 T10021046
KDUH 112015Z AUTO 16005KT 10SM OVC070 00/M04 A2983 RMK AO2 T10031041
KDUH 111955Z AUTO 17006KT 10SM SCT016 SCT026 OVC070 00/M04 A2984 RMK AO2 T10051039
KDUH 111935Z AUTO 16005KT 10SM SCT018 OVC070 M01/M04 A2985 RMK AO2 T10081040
KDUH 111855Z AUTO 16006KT 10SM SCT014 BKN019 OVC060 M01/M04 A2987 RMK AO2 T10111040
KDUH 111835Z AUTO 18004KT 10SM SCT017 BKN060 OVC070 M01/M04 A2988 RMK AO2 T10121042
KDUH 111815Z AUTO 18006KT 10SM SCT015 OVC060 M01/M04 A2990 RMK AO2 T10151043
KDUH 111755Z AUTO 21006KT 10SM BKN015 OVC060 M01/M04 A2992 RMK AO2 T10151044 11015 21052
KDUH 111735Z AUTO 19004KT 10SM BKN013 BKN018 OVC060 M02/M04 A2992 RMK AO2 T10171041
KDUH 111715Z AUTO 18005KT 7SM BKN013 BKN023 OVC060 M02/M04 A2994 RMK AO2 T10181041
KDUH 111655Z AUTO 16004KT 4SM -SN BKN013 BKN023 OVC030 M02/M04 A2995 RMK AO2 T10211043
KDUH 111635Z AUTO 17004KT 4SM -SN SCT013 BKN031 OVC050 M02/M04 A2997 RMK AO2 T10221045
KDUH 111615Z AUTO 18003KT 2 1/2SM -SN BKN013 BKN022 OVC050 M02/M05 A2998 RMK AO2 T10251046
KDUH 111555Z AUTO 17003KT 2 1/2SM -SN SCT014 BKN020 OVC030 M03/M05 A2999 RMK AO2 T10271046
KDUH 111535Z AUTO 16004KT 1 1/2SM -SN BKN014 BKN018 OVC025 M03/M05 A3000 RMK AO2 T10281050
KDUH 111515Z AUTO 15003KT 2SM -SN SCT014 OVC026 M03/M05 A2999 RMK AO2 T10301050
KDUH 111455Z AUTO 15004KT 2 1/2SM -SN OVC016 M03/M05 A3000 RMK AO2 T10311052
KDUH 111435Z AUTO 15005KT 2SM -SN BKN014 BKN019 OVC026 M03/M06 A3001 RMK AO2 T10311056
KDUH 111415Z AUTO 15003KT 10SM OVC036 M03/M06 A3003 RMK AO2 T10331058
KDUH 111355Z AUTO 00000KT 10SM OVC034 M04/M06 A3005 RMK AO2 T10361057
KDUH 111335Z AUTO 00000KT 10SM OVC032 M04/M06 A3004 RMK AO2 T10421059
KDUH 111315Z AUTO 00000KT 10SM OVC032 M04/M06 A3004 RMK AO2 T10441058
KDUH 111255Z AUTO 00000KT 10SM OVC034 M04/M06 A3005 RMK AO2 T10451059
KDUH 111235Z AUTO 00000KT 10SM OVC034 M05/M06 A3004 RMK AO2 T10461060
KDUH 111215Z AUTO 00000KT 10SM OVC034 M05/M06 A3004 RMK AO2 T10501062
KDUH 111155Z AUTO 00000KT 10SM OVC034 M05/M06 A3005 RMK AO2 T10511065 11027 21086
KDUH 111135Z AUTO 00000KT 10SM OVC034 M05/M06 A3003 RMK AO2 T10521065
KDUH 111115Z AUTO 00000KT 10SM OVC034 M06/M07 A3003 RMK AO2 T10561070
KDUH 111055Z AUTO 00000KT 10SM OVC034 M05/M07 A3003 RMK AO2 T10541066
KDUH 111035Z AUTO 00000KT 10SM OVC034 M05/M07 A3004 RMK AO2 T10531066
KDUH 111015Z AUTO 00000KT 10SM OVC034 M05/M07 A3004 RMK AO2 T10551067
KDUH 110955Z AUTO 00000KT 10SM SCT021 OVC036 M06/M07 A3005 RMK AO2 T10591070
KDUH 110935Z AUTO 00000KT 10SM OVC036 M06/M07 A3006 RMK AO2 T10651075
KDUH 110915Z AUTO 00000KT 10SM OVC038 M07/M08 A3005 RMK AO2 T10711080
KDUH 110855Z AUTO 00000KT 10SM SCT040 SCT080 SCT110 M08/M09 A3004 RMK AO2 T10831094
KDUH 110835Z AUTO 00000KT 10SM CLR M08/M09 A3003 RMK AO2 T10781092
KDUH 110815Z AUTO 00000KT 10SM CLR M07/M08 A3003 RMK AO2 T10701085
KDUH 110755Z AUTO 00000KT 10SM CLR M05/M08 A3003 RMK AO2 T10551077
KDUH 110735Z AUTO 00000KT 10SM SCT043 M05/M07 A3003 RMK AO2 T10501074
KDUH 110715Z AUTO 00000KT 10SM BKN043 M05/M07 A3003 RMK AO2 T10481070
KDUH 110655Z AUTO 00000KT 10SM CLR M04/M07 A3002 RMK AO2 T10451072
KDUH 110635Z AUTO 00000KT 10SM CLR M04/M07 A3002 RMK AO2 T10411070
KDUH 110615Z AUTO 32004KT 10SM SCT040 M03/M07 A3002 RMK AO2 T10341067
KDUH 110555Z AUTO 32005KT 10SM SCT021 SCT031 OVC040 M03/M06 A3002 RMK AO2 T10261065 11015 21026 410151053
KDUH 110535Z AUTO 32007G14KT 10SM SCT021 SCT028 OVC032 M02/M06 A3001 RMK AO2 T10211058
KDUH 110515Z AUTO 30006KT 10SM BKN023 OVC030 M02/M05 A3000 RMK AO2 T10201050
KDUH 110455Z AUTO 30004KT 10SM BKN024 OVC029 M02/M04 A3000 RMK AO2 T10201045
KDUH 110435Z AUTO 31006KT 10SM SCT013 OVC025 M02/M04 A2999 RMK AO2 T10201042
KDUH 110415Z AUTO 31006KT 10SM SCT018 OVC024 M02/M04 A2998 RMK AO2 T10181043
KDUH 110355Z AUTO 30004KT 10SM SCT017 BKN030 OVC034 M02/M05 A2998 RMK AO2 T10161048
KDUH 110335Z AUTO 28005KT 10SM BKN019 OVC034 M01/M05 A2998 RMK AO2 T10151051
KDUH 110315Z AUTO 27007KT 10SM BKN019 OVC032 M01/M05 A2998 RMK AO2 T10151052
KDUH 110255Z AUTO 26004KT 10SM SCT021 OVC034 M01/M05 A2997 RMK AO2 T10151055
KDUH 110235Z AUTO 25005KT 10SM OVC036 M01/M06 A2997 RMK AO2 T10151056
KDUH 110215Z AUTO 25003KT 10SM OVC036 M01/M06 A2997 RMK AO2 T10151058
KDUH 110155Z AUTO 23003KT 10SM OVC034 M02/M06 A2996 RMK AO2 T10171058
KDUH 110135Z AUTO 00000KT 10SM BKN026 OVC031 M02/M06 A2997 RMK AO2 T10171060
KDUH 110115Z AUTO 23003KT 10SM BKN027 OVC032 M02/M06 A2997 RMK AO2 T10191060
KDUH 110055Z AUTO 21004KT 10SM BKN028 OVC033 M02/M06 A2996 RMK AO2 T10201060
KDUH 110035Z AUTO 22004KT 10SM OVC030 M02/M06 A2995 RMK AO2 T10201061
KDUH 110015Z AUTO 21004KT 10SM OVC032 M02/M06 A2995 RMK AO2 T10201061
KDUH 102355Z AUTO 21003KT 10SM OVC030 M02/M06 A2995 RMK AO2 T10201062 11018 21031
KDUH 102335Z AUTO 22004KT 10SM OVC030 M02/M06 A2995 RMK AO2 T10191064
KDUH 102315Z AUTO 22004KT 10SM OVC030 M02/M06 A2995 RMK AO2 T10191065
KDUH 102255Z AUTO 23004KT 10SM OVC032 M02/M06 A2995 RMK AO2 T10201065
KDUH 102235Z AUTO 24005KT 10SM OVC034 M02/M07 A2995 RMK AO2 T10201066